sensor_id;sensor_type;location;lat;lon;timestamp;pressure;altitude;pressure_sealevel;temperature;humidity
30708;BME280;17458;48.958;8.284;2022-08-19T00:01:40;99941.06;;;21.96;80.53
30708;BME280;17458;48.958;8.284;2022-08-19T00:04:31;99940.16;;;21.94;80.99
30708;BME280;17458;48.958;8.284;2022-08-19T00:07:16;99939.28;;;21.89;81.33
30708;BME280;17458;48.958;8.284;2022-08-19T00:10:00;99944.66;;;21.90;81.36
30708;BME280;17458;48.958;8.284;2022-08-19T00:12:44;99940.16;;;21.96;81.00
30708;BME280;17458;48.958;8.284;2022-08-19T00:15:28;99939.28;;;22.01;80.82
30708;BME280;17458;48.958;8.284;2022-08-19T00:18:12;99933.84;;;22.04;81.03
30708;BME280;17458;48.958;8.284;2022-08-19T00:20:56;99946.47;;;22.11;81.38
30708;BME280;17458;48.958;8.284;2022-08-19T00:23:43;99939.25;;;22.13;81.07
30708;BME280;17458;48.958;8.284;2022-08-19T00:26:27;99934.78;;;21.88;82.74
30708;BME280;17458;48.958;8.284;2022-08-19T00:29:13;99934.78;;;21.88;82.93
30708;BME280;17458;48.958;8.284;2022-08-19T00:32:00;99937.44;;;21.94;83.02
30708;BME280;17458;48.958;8.284;2022-08-19T00:34:44;99942.84;;;22.08;82.58
30708;BME280;17458;48.958;8.284;2022-08-19T00:37:28;99955.47;;;22.09;82.94
30708;BME280;17458;48.958;8.284;2022-08-19T00:40:12;99947.34;;;22.12;83.20
30708;BME280;17458;48.958;8.284;2022-08-19T00:42:57;99954.56;;;22.14;84.06
30708;BME280;17458;48.958;8.284;2022-08-19T00:45:41;99950.06;;;22.16;84.80
30708;BME280;17458;48.958;8.284;2022-08-19T00:48:27;99946.47;;;22.05;85.67
30708;BME280;17458;48.958;8.284;2022-08-19T00:51:14;99926.63;;;22.12;85.67
30708;BME280;17458;48.958;8.284;2022-08-19T00:54:01;99916.66;;;22.19;85.08
30708;BME280;17458;48.958;8.284;2022-08-19T00:56:48;99914.91;;;22.16;85.54
30708;BME280;17458;48.958;8.284;2022-08-19T00:59:38;99902.28;;;22.17;85.53
30708;BME280;17458;48.958;8.284;2022-08-19T01:02:24;99915.81;;;22.15;85.33
30708;BME280;17458;48.958;8.284;2022-08-19T01:05:11;99919.41;;;22.16;85.32
30708;BME280;17458;48.958;8.284;2022-08-19T01:07:59;99934.75;;;22.09;85.96
30708;BME280;17458;48.958;8.284;2022-08-19T01:10:56;99931.13;;;22.12;86.46
30708;BME280;17458;48.958;8.284;2022-08-19T01:13:41;99944.69;;;22.03;86.56
30708;BME280;17458;48.958;8.284;2022-08-19T01:16:26;99939.25;;;22.06;86.88
30708;BME280;17458;48.958;8.284;2022-08-19T01:19:24;99945.56;;;21.97;87.14
30708;BME280;17458;48.958;8.284;2022-08-19T01:22:32;99940.19;;;21.89;88.47
30708;BME280;17458;48.958;8.284;2022-08-19T01:25:51;99928.47;;;21.89;88.61
30708;BME280;17458;48.958;8.284;2022-08-19T01:28:36;99928.47;;;21.86;88.97
30708;BME280;17458;48.958;8.284;2022-08-19T01:31:25;99933.84;;;21.92;89.00
30708;BME280;17458;48.958;8.284;2022-08-19T01:34:09;99937.44;;;21.97;88.69
30708;BME280;17458;48.958;8.284;2022-08-19T01:36:53;99936.56;;;22.01;88.60
30708;BME280;17458;48.958;8.284;2022-08-19T01:39:39;99935.66;;;21.94;88.69
30708;BME280;17458;48.958;8.284;2022-08-19T01:42:23;99951.00;;;21.88;89.65
30708;BME280;17458;48.958;8.284;2022-08-19T01:45:08;99947.38;;;21.93;89.26
30708;BME280;17458;48.958;8.284;2022-08-19T01:47:54;99941.06;;;21.91;89.44
30708;BME280;17458;48.958;8.284;2022-08-19T01:50:38;99937.47;;;21.82;90.37
30708;BME280;17458;48.958;8.284;2022-08-19T01:53:22;99932.06;;;21.85;90.04
30708;BME280;17458;48.958;8.284;2022-08-19T01:56:08;99933.84;;;21.92;89.69
30708;BME280;17458;48.958;8.284;2022-08-19T01:58:58;99936.53;;;21.95;89.35
30708;BME280;17458;48.958;8.284;2022-08-19T02:01:43;99922.16;;;21.85;89.84
30708;BME280;17458;48.958;8.284;2022-08-19T02:04:27;99926.63;;;21.96;88.89
30708;BME280;17458;48.958;8.284;2022-08-19T02:07:11;99924.88;;;21.82;89.47
30708;BME280;17458;48.958;8.284;2022-08-19T02:09:55;99927.56;;;21.87;89.29
30708;BME280;17458;48.958;8.284;2022-08-19T02:12:40;99925.78;;;21.78;89.61
30708;BME280;17458;48.958;8.284;2022-08-19T02:15:24;99937.50;;;21.73;90.14
30708;BME280;17458;48.958;8.284;2022-08-19T02:18:09;99939.28;;;21.86;89.98
30708;BME280;17458;48.958;8.284;2022-08-19T02:20:54;99941.09;;;21.85;89.58
30708;BME280;17458;48.958;8.284;2022-08-19T02:23:38;99941.13;;;21.69;90.27
30708;BME280;17458;48.958;8.284;2022-08-19T02:26:23;99942.00;;;21.69;90.65
30708;BME280;17458;48.958;8.284;2022-08-19T02:29:07;99937.47;;;21.80;90.17
30708;BME280;17458;48.958;8.284;2022-08-19T02:31:51;99932.06;;;21.82;90.02
30708;BME280;17458;48.958;8.284;2022-08-19T02:34:35;99932.06;;;21.76;90.34
30708;BME280;17458;48.958;8.284;2022-08-19T02:37:19;99928.47;;;21.86;89.54
30708;BME280;17458;48.958;8.284;2022-08-19T02:40:22;99929.38;;;21.80;90.01
30708;BME280;17458;48.958;8.284;2022-08-19T02:43:08;99917.66;;;21.78;90.11
30708;BME280;17458;48.958;8.284;2022-08-19T02:45:52;99924.03;;;21.61;90.63
30708;BME280;17458;48.958;8.284;2022-08-19T02:48:36;99916.84;;;21.47;92.17
30708;BME280;17458;48.958;8.284;2022-08-19T02:51:25;99920.44;;;21.43;92.64
30708;BME280;17458;48.958;8.284;2022-08-19T02:54:10;99915.03;;;21.45;93.11
30708;BME280;17458;48.958;8.284;2022-08-19T02:56:55;99914.13;;;21.58;92.56
30708;BME280;17458;48.958;8.284;2022-08-19T02:59:38;99917.69;;;21.69;91.20
30708;BME280;17458;48.958;8.284;2022-08-19T03:02:23;99926.69;;;21.65;91.40
30708;BME280;17458;48.958;8.284;2022-08-19T03:05:08;99915.88;;;21.73;91.40
30708;BME280;17458;48.958;8.284;2022-08-19T03:07:53;99920.34;;;21.77;90.93
30708;BME280;17458;48.958;8.284;2022-08-19T03:10:44;99934.78;;;21.80;91.20
30708;BME280;17458;48.958;8.284;2022-08-19T03:13:30;99940.19;;;21.82;90.66
30708;BME280;17458;48.958;8.284;2022-08-19T03:16:15;99946.50;;;21.82;90.61
30708;BME280;17458;48.958;8.284;2022-08-19T03:19:00;99934.78;;;21.79;90.61
30708;BME280;17458;48.958;8.284;2022-08-19T03:21:45;99934.78;;;21.79;90.66
30708;BME280;17458;48.958;8.284;2022-08-19T03:24:29;99942.00;;;21.86;90.32
30708;BME280;17458;48.958;8.284;2022-08-19T03:27:14;99947.38;;;21.92;90.14
30708;BME280;17458;48.958;8.284;2022-08-19T03:29:58;99936.59;;;21.83;90.47
30708;BME280;17458;48.958;8.284;2022-08-19T03:32:43;99938.38;;;21.81;91.04
30708;BME280;17458;48.958;8.284;2022-08-19T03:35:27;99943.75;;;21.96;89.89
30708;BME280;17458;48.958;8.284;2022-08-19T03:38:12;99954.59;;;21.85;90.44
30708;BME280;17458;48.958;8.284;2022-08-19T03:40:56;99948.28;;;21.85;90.88
30708;BME280;17458;48.958;8.284;2022-08-19T03:43:40;99961.81;;;21.80;91.44
30708;BME280;17458;48.958;8.284;2022-08-19T03:46:27;99946.53;;;21.72;92.24
30708;BME280;17458;48.958;8.284;2022-08-19T03:49:12;99957.34;;;21.73;92.17
30708;BME280;17458;48.958;8.284;2022-08-19T03:51:57;99956.44;;;21.71;92.82
30708;BME280;17458;48.958;8.284;2022-08-19T03:54:43;99959.13;;;21.67;93.15
30708;BME280;17458;48.958;8.284;2022-08-19T03:57:28;99955.53;;;21.49;94.56
30708;BME280;17458;48.958;8.284;2022-08-19T04:00:12;99956.44;;;21.54;94.10
30708;BME280;17458;48.958;8.284;2022-08-19T04:02:56;99948.34;;;21.56;93.98
30708;BME280;17458;48.958;8.284;2022-08-19T04:05:40;99951.03;;;21.50;94.20
30708;BME280;17458;48.958;8.284;2022-08-19T04:08:24;99955.53;;;21.52;94.29
30708;BME280;17458;48.958;8.284;2022-08-19T04:11:14;99949.25;;;21.55;93.71
30708;BME280;17458;48.958;8.284;2022-08-19T04:13:59;99965.47;;;21.58;93.68
30708;BME280;17458;48.958;8.284;2022-08-19T04:16:45;99959.13;;;21.62;93.26
30708;BME280;17458;48.958;8.284;2022-08-19T04:19:31;99964.53;;;21.67;92.18
30708;BME280;17458;48.958;8.284;2022-08-19T04:22:15;99969.94;;;21.53;93.11
30708;BME280;17458;48.958;8.284;2022-08-19T04:25:00;99967.22;;;21.64;92.58
30708;BME280;17458;48.958;8.284;2022-08-19T04:27:44;99968.13;;;21.70;91.70
30708;BME280;17458;48.958;8.284;2022-08-19T04:30:30;99965.44;;;21.70;91.56
30708;BME280;17458;48.958;8.284;2022-08-19T04:33:16;99964.53;;;21.74;91.64
30708;BME280;17458;48.958;8.284;2022-08-19T04:36:00;99954.63;;;21.69;91.49
30708;BME280;17458;48.958;8.284;2022-08-19T04:38:44;99956.41;;;21.64;91.85
30708;BME280;17458;48.958;8.284;2022-08-19T04:41:28;99955.56;;;21.60;92.06
30708;BME280;17458;48.958;8.284;2022-08-19T04:44:35;99958.22;;;21.68;91.48
30708;BME280;17458;48.958;8.284;2022-08-19T04:47:20;99965.47;;;21.60;91.73
30708;BME280;17458;48.958;8.284;2022-08-19T04:50:06;99962.75;;;21.56;92.18
30708;BME280;17458;48.958;8.284;2022-08-19T04:52:51;99962.72;;;21.70;91.51
30708;BME280;17458;48.958;8.284;2022-08-19T04:55:39;99970.84;;;21.75;91.25
30708;BME280;17458;48.958;8.284;2022-08-19T04:58:24;99977.16;;;21.75;91.08
30708;BME280;17458;48.958;8.284;2022-08-19T05:01:12;99977.13;;;21.78;90.58
30708;BME280;17458;48.958;8.284;2022-08-19T05:03:57;99978.94;;;21.78;90.49
30708;BME280;17458;48.958;8.284;2022-08-19T05:06:41;99989.75;;;21.84;90.40
30708;BME280;17458;48.958;8.284;2022-08-19T05:09:26;99989.72;;;21.93;89.48
30708;BME280;17458;48.958;8.284;2022-08-19T05:12:12;99987.00;;;21.96;88.30
30708;BME280;17458;48.958;8.284;2022-08-19T05:14:57;99991.56;;;22.02;87.88
30708;BME280;17458;48.958;8.284;2022-08-19T05:17:41;99996.03;;;21.95;88.07
30708;BME280;17458;48.958;8.284;2022-08-19T05:20:46;99994.22;;;21.91;88.12
30708;BME280;17458;48.958;8.284;2022-08-19T05:23:48;99993.31;;;21.97;87.70
30708;BME280;17458;48.958;8.284;2022-08-19T05:26:33;100005.97;;;21.99;87.16
30708;BME280;17458;48.958;8.284;2022-08-19T05:29:19;100010.47;;;22.11;85.64
30708;BME280;17458;48.958;8.284;2022-08-19T05:32:04;100016.78;;;22.16;84.56
30708;BME280;17458;48.958;8.284;2022-08-19T05:34:53;100024.88;;;22.11;84.08
30708;BME280;17458;48.958;8.284;2022-08-19T05:37:37;100017.66;;;22.16;83.24
30708;BME280;17458;48.958;8.284;2022-08-19T05:40:24;100023.94;;;22.21;82.87
30708;BME280;17458;48.958;8.284;2022-08-19T05:43:07;100031.13;;;22.33;81.45
30708;BME280;17458;48.958;8.284;2022-08-19T05:45:52;100032.94;;;22.33;80.83
30708;BME280;17458;48.958;8.284;2022-08-19T05:48:36;100042.88;;;22.26;80.89
30708;BME280;17458;48.958;8.284;2022-08-19T05:51:20;100049.16;;;22.33;80.67
30708;BME280;17458;48.958;8.284;2022-08-19T05:54:05;100047.41;;;22.28;80.81
30708;BME280;17458;48.958;8.284;2022-08-19T05:56:52;100050.09;;;22.25;81.22
30708;BME280;17458;48.958;8.284;2022-08-19T05:59:36;100059.09;;;22.34;80.88
30708;BME280;17458;48.958;8.284;2022-08-19T06:02:20;100054.56;;;22.42;80.59
30708;BME280;17458;48.958;8.284;2022-08-19T06:05:05;100056.34;;;22.49;79.99
30708;BME280;17458;48.958;8.284;2022-08-19T06:07:56;100061.75;;;22.53;80.15
30708;BME280;17458;48.958;8.284;2022-08-19T06:10:40;100056.34;;;22.59;79.97
30708;BME280;17458;48.958;8.284;2022-08-19T06:13:24;100059.00;;;22.67;79.99
30708;BME280;17458;48.958;8.284;2022-08-19T06:16:09;100058.09;;;22.65;79.65
30708;BME280;17458;48.958;8.284;2022-08-19T06:18:54;100060.75;;;22.74;79.65
30708;BME280;17458;48.958;8.284;2022-08-19T06:21:41;100055.38;;;22.63;79.48
30708;BME280;17458;48.958;8.284;2022-08-19T06:24:27;100062.59;;;22.69;79.45
30708;BME280;17458;48.958;8.284;2022-08-19T06:27:12;100066.22;;;22.73;79.01
30708;BME280;17458;48.958;8.284;2022-08-19T06:29:56;100061.69;;;22.72;79.31
30708;BME280;17458;48.958;8.284;2022-08-19T06:32:40;100065.28;;;22.78;78.72
30708;BME280;17458;48.958;8.284;2022-08-19T06:35:24;100073.47;;;22.49;78.99
30708;BME280;17458;48.958;8.284;2022-08-19T06:38:09;100066.22;;;22.67;79.08
30708;BME280;17458;48.958;8.284;2022-08-19T06:41:04;100073.41;;;22.83;78.69
30708;BME280;17458;48.958;8.284;2022-08-19T06:43:48;100077.03;;;22.83;77.02
30708;BME280;17458;48.958;8.284;2022-08-19T06:46:32;100076.97;;;22.89;76.69
30708;BME280;17458;48.958;8.284;2022-08-19T06:49:17;100081.41;;;23.07;76.54
30708;BME280;17458;48.958;8.284;2022-08-19T06:52:01;100085.84;;;23.23;75.39
30708;BME280;17458;48.958;8.284;2022-08-19T06:54:45;100080.41;;;23.26;74.26
30708;BME280;17458;48.958;8.284;2022-08-19T06:57:29;100079.59;;;23.12;74.43
30708;BME280;17458;48.958;8.284;2022-08-19T07:00:15;100076.75;;;23.33;73.83
30708;BME280;17458;48.958;8.284;2022-08-19T07:02:59;100084.78;;;23.55;72.52
30708;BME280;17458;48.958;8.284;2022-08-19T07:05:44;100087.44;;;23.62;72.22
30708;BME280;17458;48.958;8.284;2022-08-19T07:08:28;100090.19;;;23.49;71.17
30708;BME280;17458;48.958;8.284;2022-08-19T07:11:14;100093.72;;;23.71;70.35
30708;BME280;17458;48.958;8.284;2022-08-19T07:14:01;100089.22;;;23.68;68.81
30708;BME280;17458;48.958;8.284;2022-08-19T07:16:48;100098.06;;;23.87;67.79
30708;BME280;17458;48.958;8.284;2022-08-19T07:19:33;100095.41;;;23.84;66.23
30708;BME280;17458;48.958;8.284;2022-08-19T07:22:17;100091.75;;;23.89;66.64
30708;BME280;17458;48.958;8.284;2022-08-19T07:25:02;100082.78;;;23.78;66.16
30708;BME280;17458;48.958;8.284;2022-08-19T07:27:50;100094.38;;;24.00;65.77
30708;BME280;17458;48.958;8.284;2022-08-19T07:30:36;100092.41;;;24.16;64.56
30708;BME280;17458;48.958;8.284;2022-08-19T07:33:20;100094.28;;;24.09;65.26
30708;BME280;17458;48.958;8.284;2022-08-19T07:36:06;100096.66;;;24.47;64.76
30708;BME280;17458;48.958;8.284;2022-08-19T07:38:52;100085.16;;;24.18;65.60
30708;BME280;17458;48.958;8.284;2022-08-19T07:41:38;100087.47;;;24.59;65.61
30708;BME280;17458;48.958;8.284;2022-08-19T07:44:23;100089.88;;;24.85;63.43
30708;BME280;17458;48.958;8.284;2022-08-19T07:47:08;100089.97;;;24.80;62.96
30708;BME280;17458;48.958;8.284;2022-08-19T07:49:52;100088.34;;;24.61;61.03
30708;BME280;17458;48.958;8.284;2022-08-19T07:52:36;100082.00;;;24.62;61.89
30708;BME280;17458;48.958;8.284;2022-08-19T07:55:24;100085.34;;;24.87;62.83
30708;BME280;17458;48.958;8.284;2022-08-19T07:58:12;100085.47;;;24.78;61.80
30708;BME280;17458;48.958;8.284;2022-08-19T08:00:57;100078.91;;;24.98;60.87
30708;BME280;17458;48.958;8.284;2022-08-19T08:03:42;100092.03;;;25.30;61.52
30708;BME280;17458;48.958;8.284;2022-08-19T08:06:46;100095.66;;;25.29;60.20
30708;BME280;17458;48.958;8.284;2022-08-19T08:09:49;100092.06;;;25.27;60.42
30708;BME280;17458;48.958;8.284;2022-08-19T08:12:37;100089.34;;;25.29;61.14
30708;BME280;17458;48.958;8.284;2022-08-19T08:15:24;100089.91;;;25.54;60.29
30708;BME280;17458;48.958;8.284;2022-08-19T08:18:08;100086.50;;;25.38;59.07
30708;BME280;17458;48.958;8.284;2022-08-19T08:20:51;100100.78;;;25.54;59.86
30708;BME280;17458;48.958;8.284;2022-08-19T08:23:35;100099.69;;;25.68;59.04
30708;BME280;17458;48.958;8.284;2022-08-19T08:26:19;100099.63;;;25.70;59.73
30708;BME280;17458;48.958;8.284;2022-08-19T08:29:03;100094.94;;;25.81;58.85
30708;BME280;17458;48.958;8.284;2022-08-19T08:31:48;100101.34;;;25.78;58.68
30708;BME280;17458;48.958;8.284;2022-08-19T08:34:32;100103.81;;;25.94;58.40
30708;BME280;17458;48.958;8.284;2022-08-19T08:37:16;100106.13;;;26.17;57.79
30708;BME280;17458;48.958;8.284;2022-08-19T08:40:05;100096.28;;;26.09;57.37
30708;BME280;17458;48.958;8.284;2022-08-19T08:46:09;100096.88;;;26.25;56.00
30708;BME280;17458;48.958;8.284;2022-08-19T08:48:59;100111.16;;;25.86;56.63
30708;BME280;17458;48.958;8.284;2022-08-19T08:51:52;100098.91;;;26.14;56.74
30708;BME280;17458;48.958;8.284;2022-08-19T08:54:43;100092.63;;;26.61;55.17
30708;BME280;17458;48.958;8.284;2022-08-19T08:57:39;100097.19;;;26.61;53.14
30708;BME280;17458;48.958;8.284;2022-08-19T09:00:48;100110.28;;;25.84;55.38
30708;BME280;17458;48.958;8.284;2022-08-19T09:03:33;100098.91;;;26.14;55.13
30708;BME280;17458;48.958;8.284;2022-08-19T09:06:49;100094.41;;;26.64;53.35
30708;BME280;17458;48.958;8.284;2022-08-19T09:09:47;100096.53;;;26.48;53.29
30708;BME280;17458;48.958;8.284;2022-08-19T09:12:41;100102.59;;;27.08;51.44
30708;BME280;17458;48.958;8.284;2022-08-19T09:15:42;100107.06;;;26.66;52.43
30708;BME280;17458;48.958;8.284;2022-08-19T09:18:49;100104.63;;;26.53;53.74
30708;BME280;17458;48.958;8.284;2022-08-19T09:21:36;100097.63;;;26.38;52.65
30708;BME280;17458;48.958;8.284;2022-08-19T09:24:22;100115.31;;;26.62;52.42
30708;BME280;17458;48.958;8.284;2022-08-19T09:27:06;100110.47;;;26.30;52.31
30708;BME280;17458;48.958;8.284;2022-08-19T09:29:51;100108.94;;;26.63;51.56
30708;BME280;17458;48.958;8.284;2022-08-19T09:32:35;100098.94;;;26.63;51.07
30708;BME280;17458;48.958;8.284;2022-08-19T09:35:22;100099.13;;;27.00;50.26
30708;BME280;17458;48.958;8.284;2022-08-19T09:38:06;100095.03;;;27.23;50.21
30708;BME280;17458;48.958;8.284;2022-08-19T09:40:50;100096.63;;;27.33;49.21
30708;BME280;17458;48.958;8.284;2022-08-19T09:43:34;100107.19;;;27.86;48.67
30708;BME280;17458;48.958;8.284;2022-08-19T09:46:20;100095.19;;;27.55;48.31
30708;BME280;17458;48.958;8.284;2022-08-19T09:49:07;100103.38;;;28.31;46.79
30708;BME280;17458;48.958;8.284;2022-08-19T09:51:52;100106.47;;;28.15;47.32
30708;BME280;17458;48.958;8.284;2022-08-19T09:54:39;100100.19;;;28.12;47.78
30708;BME280;17458;48.958;8.284;2022-08-19T09:57:23;100095.72;;;27.72;47.09
30708;BME280;17458;48.958;8.284;2022-08-19T10:00:08;100104.22;;;27.96;46.34
30708;BME280;17458;48.958;8.284;2022-08-19T10:02:52;100103.53;;;28.25;47.19
30708;BME280;17458;48.958;8.284;2022-08-19T10:05:36;100102.63;;;28.24;45.79
30708;BME280;17458;48.958;8.284;2022-08-19T10:08:35;100095.09;;;28.66;45.62
30708;BME280;17458;48.958;8.284;2022-08-19T10:11:20;100098.06;;;28.58;45.63
30708;BME280;17458;48.958;8.284;2022-08-19T10:14:05;100104.78;;;28.79;44.93
30708;BME280;17458;48.958;8.284;2022-08-19T10:16:49;100105.69;;;28.46;45.79
30708;BME280;17458;48.958;8.284;2022-08-19T10:19:34;100105.47;;;28.53;45.51
30708;BME280;17458;48.958;8.284;2022-08-19T10:22:19;100102.81;;;28.16;46.10
30708;BME280;17458;48.958;8.284;2022-08-19T10:25:05;100094.16;;;28.35;46.62
30708;BME280;17458;48.958;8.284;2022-08-19T10:27:49;100093.25;;;27.99;46.48
30708;BME280;17458;48.958;8.284;2022-08-19T10:30:35;100101.22;;;28.43;46.32
30708;BME280;17458;48.958;8.284;2022-08-19T10:33:19;100095.25;;;27.92;46.63
30708;BME280;17458;48.958;8.284;2022-08-19T10:36:06;100098.16;;;27.84;47.06
30708;BME280;17458;48.958;8.284;2022-08-19T10:38:53;100094.97;;;28.03;46.79
30708;BME280;17458;48.958;8.284;2022-08-19T10:41:39;100086.75;;;28.04;46.93
30708;BME280;17458;48.958;8.284;2022-08-19T10:44:23;100093.81;;;28.48;46.97
30708;BME280;17458;48.958;8.284;2022-08-19T10:47:07;100083.69;;;28.50;46.02
30708;BME280;17458;48.958;8.284;2022-08-19T10:49:53;100085.34;;;28.57;45.51
30708;BME280;17458;48.958;8.284;2022-08-19T10:52:56;100084.75;;;28.79;45.26
30708;BME280;17458;48.958;8.284;2022-08-19T10:55:40;100087.59;;;29.36;44.76
30708;BME280;17458;48.958;8.284;2022-08-19T10:58:43;100071.84;;;29.74;43.75
30708;BME280;17458;48.958;8.284;2022-08-19T11:01:29;100080.97;;;30.02;42.50
30708;BME280;17458;48.958;8.284;2022-08-19T11:04:14;100068.03;;;30.06;42.78
30708;BME280;17458;48.958;8.284;2022-08-19T11:07:01;100073.50;;;29.78;43.40
30708;BME280;17458;48.958;8.284;2022-08-19T11:09:47;100065.19;;;30.09;42.32
30708;BME280;17458;48.958;8.284;2022-08-19T11:12:30;100065.31;;;30.06;42.58
30708;BME280;17458;48.958;8.284;2022-08-19T11:15:15;100062.25;;;29.60;43.32
30708;BME280;17458;48.958;8.284;2022-08-19T11:18:03;100060.72;;;28.59;44.71
30708;BME280;17458;48.958;8.284;2022-08-19T11:20:47;100059.50;;;28.37;46.21
30708;BME280;17458;48.958;8.284;2022-08-19T11:23:31;100061.31;;;28.02;46.32
30708;BME280;17458;48.958;8.284;2022-08-19T11:26:16;100059.94;;;27.84;46.69
30708;BME280;17458;48.958;8.284;2022-08-19T11:29:02;100057.31;;;27.80;46.76
30708;BME280;17458;48.958;8.284;2022-08-19T11:31:49;100052.84;;;27.77;46.12
30708;BME280;17458;48.958;8.284;2022-08-19T11:34:33;100049.09;;;28.18;45.71
30708;BME280;17458;48.958;8.284;2022-08-19T11:37:19;100037.44;;;28.77;45.06
30708;BME280;17458;48.958;8.284;2022-08-19T11:40:05;100040.22;;;29.34;43.31
30708;BME280;17458;48.958;8.284;2022-08-19T11:42:49;100037.56;;;29.33;43.54
30708;BME280;17458;48.958;8.284;2022-08-19T11:45:39;100039.81;;;29.48;44.33
30708;BME280;17458;48.958;8.284;2022-08-19T11:48:24;100027.09;;;28.88;44.62
30708;BME280;17458;48.958;8.284;2022-08-19T11:51:13;100038.56;;;29.30;45.00
30708;BME280;17458;48.958;8.284;2022-08-19T11:53:58;100038.19;;;29.70;43.96
30708;BME280;17458;48.958;8.284;2022-08-19T11:56:43;100038.44;;;28.73;45.54
30708;BME280;17458;48.958;8.284;2022-08-19T11:59:27;100037.53;;;28.07;47.53
30708;BME280;17458;48.958;8.284;2022-08-19T12:02:12;100033.34;;;28.28;45.43
30708;BME280;17458;48.958;8.284;2022-08-19T12:04:59;100037.59;;;28.38;46.48
30708;BME280;17458;48.958;8.284;2022-08-19T12:07:46;100034.84;;;28.40;45.88
30708;BME280;17458;48.958;8.284;2022-08-19T12:10:30;100038.00;;;28.57;45.12
30708;BME280;17458;48.958;8.284;2022-08-19T12:13:15;100034.00;;;28.36;45.82
30708;BME280;17458;48.958;8.284;2022-08-19T12:16:15;100035.78;;;28.39;45.55
30708;BME280;17458;48.958;8.284;2022-08-19T12:19:00;100044.28;;;28.61;45.38
30708;BME280;17458;48.958;8.284;2022-08-19T12:21:47;100043.63;;;28.83;46.24
30708;BME280;17458;48.958;8.284;2022-08-19T12:24:32;100039.78;;;28.90;43.86
30708;BME280;17458;48.958;8.284;2022-08-19T12:27:17;100032.78;;;28.80;43.51
30708;BME280;17458;48.958;8.284;2022-08-19T12:30:03;100038.66;;;28.98;43.76
30708;BME280;17458;48.958;8.284;2022-08-19T12:32:47;100035.28;;;29.19;43.50
30708;BME280;17458;48.958;8.284;2022-08-19T12:35:31;100048.59;;;29.59;43.47
30708;BME280;17458;48.958;8.284;2022-08-19T12:38:16;100052.38;;;29.83;42.36
30708;BME280;17458;48.958;8.284;2022-08-19T12:41:01;100044.63;;;29.95;42.31
30708;BME280;17458;48.958;8.284;2022-08-19T12:43:49;100049.22;;;29.95;42.51
30708;BME280;17458;48.958;8.284;2022-08-19T12:46:33;100041.88;;;30.48;41.45
30708;BME280;17458;48.958;8.284;2022-08-19T12:49:17;100043.47;;;30.55;39.72
30708;BME280;17458;48.958;8.284;2022-08-19T12:52:02;100035.94;;;30.36;40.83
30708;BME280;17458;48.958;8.284;2022-08-19T12:54:47;100040.53;;;30.35;40.00
30708;BME280;17458;48.958;8.284;2022-08-19T12:57:31;100038.56;;;30.39;40.11
30708;BME280;17458;48.958;8.284;2022-08-19T13:00:20;100044.00;;;30.15;40.84
30708;BME280;17458;48.958;8.284;2022-08-19T13:03:05;100032.59;;;30.52;38.52
30708;BME280;17458;48.958;8.284;2022-08-19T13:05:50;100028.88;;;30.55;39.48
30708;BME280;17458;48.958;8.284;2022-08-19T13:08:35;100028.00;;;30.78;37.41
30708;BME280;17458;48.958;8.284;2022-08-19T13:11:20;100027.53;;;30.90;37.76
30708;BME280;17458;48.958;8.284;2022-08-19T13:14:04;100029.13;;;30.97;36.98
30708;BME280;17458;48.958;8.284;2022-08-19T13:16:49;100029.97;;;30.74;36.88
30708;BME280;17458;48.958;8.284;2022-08-19T13:19:33;100019.00;;;30.74;36.59
30708;BME280;17458;48.958;8.284;2022-08-19T13:22:20;100011.28;;;30.11;35.64
30708;BME280;17458;48.958;8.284;2022-08-19T13:25:05;100006.69;;;30.11;35.89
30708;BME280;17458;48.958;8.284;2022-08-19T13:27:50;99993.94;;;30.10;35.92
30708;BME280;17458;48.958;8.284;2022-08-19T13:30:34;100004.56;;;29.39;36.32
30708;BME280;17458;48.958;8.284;2022-08-19T13:33:37;100005.91;;;29.53;36.63
30708;BME280;17458;48.958;8.284;2022-08-19T13:36:21;100001.72;;;29.96;36.29
30708;BME280;17458;48.958;8.284;2022-08-19T13:39:06;99998.13;;;29.94;37.11
30708;BME280;17458;48.958;8.284;2022-08-19T13:41:54;99999.16;;;29.36;37.51
30708;BME280;17458;48.958;8.284;2022-08-19T13:44:38;100005.66;;;30.15;36.94
30708;BME280;17458;48.958;8.284;2022-08-19T13:47:22;99991.31;;;30.58;36.95
30708;BME280;17458;48.958;8.284;2022-08-19T13:50:06;99995.78;;;31.08;36.04
30708;BME280;17458;48.958;8.284;2022-08-19T13:52:51;99994.03;;;31.05;36.05
30708;BME280;17458;48.958;8.284;2022-08-19T13:55:38;99989.38;;;31.07;35.53
30708;BME280;17458;48.958;8.284;2022-08-19T13:58:22;99989.63;;;30.54;35.64
30708;BME280;17458;48.958;8.284;2022-08-19T14:01:07;99986.91;;;30.03;36.39
30708;BME280;17458;48.958;8.284;2022-08-19T14:03:52;99994.97;;;29.80;37.25
30708;BME280;17458;48.958;8.284;2022-08-19T14:06:36;99990.25;;;30.11;36.64
30708;BME280;17458;48.958;8.284;2022-08-19T14:09:20;99989.09;;;30.43;35.97
30708;BME280;17458;48.958;8.284;2022-08-19T14:12:04;99988.91;;;30.23;36.30
30708;BME280;17458;48.958;8.284;2022-08-19T14:14:49;99983.84;;;30.12;36.83
30708;BME280;17458;48.958;8.284;2022-08-19T14:17:32;99986.00;;;30.03;37.00
30708;BME280;17458;48.958;8.284;2022-08-19T14:20:18;99973.22;;;30.28;36.05
30708;BME280;17458;48.958;8.284;2022-08-19T14:23:02;99982.66;;;30.92;36.01
30708;BME280;17458;48.958;8.284;2022-08-19T14:25:47;99982.38;;;31.00;35.90
30708;BME280;17458;48.958;8.284;2022-08-19T14:28:31;99986.13;;;30.97;36.19
30708;BME280;17458;48.958;8.284;2022-08-19T14:31:17;99978.47;;;30.34;37.09
30708;BME280;17458;48.958;8.284;2022-08-19T14:34:02;99984.69;;;30.39;38.30
30708;BME280;17458;48.958;8.284;2022-08-19T14:36:46;99982.38;;;30.27;38.26
30708;BME280;17458;48.958;8.284;2022-08-19T14:39:30;99975.06;;;30.03;38.44